KSJT/SJT METAR and TAF weather

Enter ICAO airport designator
Station Type Date Time Source
KSJT METAR 2021/05/14 21:51 UTC NOAA

KSJT 142151Z 15011G20KT 10SM FEW047 28/14 A3006 RMK AO2 SLP161 T02780139


Station Type Date Time Source
KSJT Decoded METAR 2021/05/14 21:51 UTC NOAA

MATHIS FIELD, TX, United States (KSJT) 31-21N 100-30W 581M
May 14, 2021 - 05:51 PM EDT / 2021.05.14 2151 UTC
Wind: from the SSE (150 degrees) at 13 MPH (11 KT) gusting to 23 MPH (20 KT):0
Visibility: 10 mile(s):0
Sky conditions: mostly clear
Temperature: 82.0 F (27.8 C)
Dew Point: 57.0 F (13.9 C)
Relative Humidity: 42%
Pressure (altimeter): 30.06 in. Hg (1017 hPa)
ob: KSJT 142151Z 15011G20KT 10SM FEW047 28/14 A3006 RMK AO2 SLP161 T02780139
cycle: 22

Station Type Date Time Source
KSJT TAF 2021/05/14 18:27 UTC NOAA

TAF KSJT 141725Z 1418/1518 16012G19KT P6SM BKN035
FM141900 17013G20KT P6SM FEW060
FM150100 15010KT P6SM SKC
FM151000 15010KT P6SM BKN015
FM151500 17015G22KT P6SM BKN020

Example: see airport list